Time;durP1;ratioP1;P1;durP2;ratioP2;P2;SDS_P1;SDS_P2;PMS_P1;PMS_P2;Temp;Humidity;BMP_temperature;BMP_pressure;BME280_temperature;BME280_humidity;BME280_pressure;Samples;Min_cycle;Max_cycle;Signal;HPM_P1;HPM_P2
2023/04/04 00:00:39;;;;;;;2.13;2.00;;;4.40;90.30;;;4.11;nan;101719.75;4936077;29;20672;-66
2023/04/04 00:03:06;;;;;;;1.60;1.60;;;4.40;90.20;;;4.07;nan;101718.97;4937065;29;20754;-65
2023/04/04 00:05:34;;;;;;;1.60;1.50;;;4.30;90.50;;;4.06;nan;101713.84;4936036;29;20205;-66
2023/04/04 00:08:03;;;;;;;1.60;1.50;;;4.30;90.80;;;4.06;nan;101716.44;4934699;29;20225;-66
2023/04/04 00:10:30;;;;;;;1.90;1.80;;;4.30;90.70;;;4.02;nan;101712.25;4935921;29;20225;-66
2023/04/04 00:12:56;;;;;;;2.03;1.90;;;4.30;90.80;;;4.00;nan;101704.53;4935747;29;20210;-67
2023/04/04 00:15:23;;;;;;;1.10;1.10;;;4.20;91.20;;;3.99;nan;101708.00;4936899;29;20254;-66
2023/04/04 00:17:50;;;;;;;1.00;1.00;;;4.20;91.30;;;3.99;nan;101702.84;4936289;29;20228;-66
2023/04/04 00:20:17;;;;;;;1.92;1.50;;;4.20;91.40;;;3.93;nan;101703.00;4936325;29;20680;-66
2023/04/04 00:22:44;;;;;;;3.03;1.55;;;4.20;91.70;;;3.87;nan;101700.59;4934792;29;20671;-66
2023/04/04 00:25:11;;;;;;;1.50;1.40;;;4.10;92.00;;;3.82;nan;101705.03;4936403;29;20209;-66
2023/04/04 00:27:38;;;;;;;2.97;1.85;;;4.10;92.30;;;3.79;nan;101698.22;4935042;29;20586;-66
2023/04/04 00:30:06;;;;;;;1.77;1.65;;;4.10;92.70;;;3.73;nan;101693.22;4935285;29;20621;-65
2023/04/04 00:32:33;;;;;;;2.05;1.55;;;4.00;93.30;;;3.71;nan;101691.56;4935770;29;20202;-66
2023/04/04 00:35:00;;;;;;;1.58;1.48;;;4.00;93.40;;;3.67;nan;101684.78;4936777;29;20213;-66
2023/04/04 00:37:27;;;;;;;2.00;1.90;;;4.00;93.80;;;3.61;nan;101680.66;4935023;29;20233;-66
2023/04/04 00:39:55;;;;;;;2.25;1.60;;;3.90;94.20;;;3.53;nan;101686.91;4934818;29;20676;-65
2023/04/04 00:42:22;;;;;;;1.63;1.40;;;3.80;94.50;;;3.47;nan;101681.91;4915958;29;20202;-66
2023/04/04 00:44:51;;;;;;;2.25;1.60;;;3.80;95.30;;;3.39;nan;101684.69;4916751;29;20237;-65
2023/04/04 00:47:23;;;;;;;7.40;2.40;;;3.70;95.60;;;3.34;nan;101685.69;4928002;29;20251;-66
2023/04/04 00:49:51;;;;;;;1.85;1.77;;;3.60;96.30;;;3.29;nan;101675.50;4934968;29;20232;-67
2023/04/04 00:52:18;;;;;;;1.70;1.70;;;3.60;96.80;;;3.29;nan;101674.63;4932253;29;20201;-67
2023/04/04 00:54:45;;;;;;;1.70;1.60;;;3.60;97.10;;;3.24;nan;101673.94;4932802;29;20533;-65
2023/04/04 00:57:12;;;;;;;1.77;1.67;;;3.50;97.60;;;3.17;nan;101675.81;4934514;29;20228;-66
2023/04/04 00:59:40;;;;;;;1.95;1.92;;;3.50;98.30;;;3.10;nan;101672.53;4935002;29;20568;-66
2023/04/04 01:02:07;;;;;;;1.75;1.65;;;3.40;99.20;;;3.08;nan;101673.44;4949644;28;20209;-66
2023/04/04 01:04:35;;;;;;;1.92;1.70;;;3.30;99.90;;;3.06;nan;101672.63;4935094;29;20209;-66
2023/04/04 01:07:03;;;;;;;1.70;1.70;;;3.30;99.90;;;3.05;nan;101669.22;4933951;29;20229;-66
2023/04/04 01:09:30;;;;;;;2.10;2.00;;;3.30;99.90;;;2.98;nan;101683.13;4949323;28;20251;-68
2023/04/04 01:11:57;;;;;;;1.63;1.63;;;3.30;99.90;;;2.98;nan;101672.00;4933509;29;20205;-65
2023/04/04 01:14:24;;;;;;;1.83;1.73;;;3.30;99.90;;;2.96;nan;101678.91;4934089;29;20209;-67
2023/04/04 01:16:52;;;;;;;2.00;1.90;;;3.30;99.90;;;2.91;nan;101673.88;4933623;29;20284;-65
2023/04/04 01:19:37;;;;;;;1.80;1.67;;;3.20;99.90;;;2.89;nan;101674.78;4932854;29;20216;-66
2023/04/04 01:22:05;;;;;;;1.92;1.83;;;3.20;99.90;;;2.86;nan;101673.13;4932673;29;20217;-65
2023/04/04 01:24:33;;;;;;;2.00;1.90;;;3.20;99.90;;;2.81;nan;101672.38;4932595;29;20239;-66
2023/04/04 01:27:00;;;;;;;2.17;2.05;;;3.10;99.90;;;2.68;nan;101676.13;4933017;29;20233;-66
2023/04/04 01:29:28;;;;;;;2.17;2.08;;;3.00;99.90;;;2.66;nan;101669.31;4932765;29;20225;-66
2023/04/04 01:32:12;;;;;;;1.85;1.75;;;2.90;99.90;;;2.59;nan;101666.03;4934054;29;20208;-68
2023/04/04 01:35:25;;;;;;;2.00;1.90;;;2.90;99.90;;;2.56;nan;101662.66;4932175;29;20293;-66
2023/04/04 01:38:10;;;;;;;2.70;1.65;;;2.90;99.90;;;2.52;nan;101667.03;4930079;29;20704;-66
2023/04/04 01:40:38;;;;;;;2.05;1.95;;;2.80;99.90;;;2.53;nan;101661.03;4931620;29;20244;-67
2023/04/04 01:43:06;;;;;;;7.55;1.90;;;2.80;99.90;;;2.53;nan;101652.44;4932597;29;20739;-66
2023/04/04 01:45:34;;;;;;;2.10;2.00;;;2.80;99.90;;;2.52;nan;101659.31;4932836;29;20209;-67
2023/04/04 01:48:01;;;;;;;2.25;2.15;;;2.80;99.90;;;2.51;nan;101662.78;4933663;29;20272;-69
2023/04/04 01:50:28;;;;;;;2.13;2.03;;;2.80;99.90;;;2.49;nan;101655.97;4933478;29;20649;-66
2023/04/04 01:52:55;;;;;;;2.10;2.00;;;2.80;99.90;;;2.47;nan;101655.97;4938249;29;20201;-65
2023/04/04 01:55:22;;;;;;;1.90;1.80;;;2.70;99.90;;;2.46;nan;101653.44;4938273;28;20296;-66
2023/04/04 01:57:50;;;;;;;2.00;1.90;;;2.70;99.90;;;2.43;nan;101650.97;4932064;29;20279;-67
2023/04/04 02:00:17;;;;;;;2.45;1.98;;;2.70;99.90;;;2.42;nan;101650.09;4933016;29;20213;-66
2023/04/04 02:02:44;;;;;;;3.33;2.20;;;2.70;99.90;;;2.40;nan;101646.72;4933357;29;20198;-66
2023/04/04 02:05:11;;;;;;;1.60;1.60;;;2.70;99.90;;;2.38;nan;101648.50;4932824;29;20213;-65
2023/04/04 02:07:38;;;;;;;2.20;2.10;;;2.70;99.90;;;2.55;nan;101650.69;4932938;29;20239;-66
2023/04/04 02:10:06;;;;;;;2.10;2.00;;;2.70;99.90;;;2.54;nan;101647.25;4932099;29;20239;-66
2023/04/04 02:12:33;;;;;;;2.17;2.08;;;2.70;99.90;;;2.57;nan;101644.63;4933401;29;20255;-66
2023/04/04 02:15:00;;;;;;;2.10;2.00;;;2.70;99.90;;;2.57;nan;101654.91;4932168;29;20206;-65
2023/04/04 02:17:27;;;;;;;2.85;2.20;;;2.70;99.90;;;2.54;nan;101654.13;4933631;29;20230;-65
2023/04/04 02:19:55;;;;;;;2.10;2.00;;;2.70;99.90;;;2.47;nan;101655.97;4932569;29;20217;-66
2023/04/04 02:22:22;;;;;;;2.40;2.30;;;2.60;99.90;;;2.48;nan;101662.84;4934036;29;20587;-66
2023/04/04 02:24:49;;;;;;;1.90;1.80;;;2.60;99.90;;;2.47;nan;101655.16;4933722;29;20209;-67
2023/04/04 02:27:16;;;;;;;1.67;1.65;;;2.60;99.90;;;2.44;nan;101656.06;4932783;29;20233;-66
2023/04/04 02:29:43;;;;;;;1.90;1.83;;;2.60;99.90;;;2.38;nan;101652.78;4932235;29;20666;-66
2023/04/04 02:32:10;;;;;;;2.00;1.90;;;2.50;99.90;;;2.18;nan;101651.50;4932281;29;20221;-66
2023/04/04 02:34:37;;;;;;;2.00;1.90;;;2.50;99.90;;;2.16;nan;101652.41;4933050;29;20791;-66
2023/04/04 02:37:04;;;;;;;2.25;2.15;;;2.50;99.90;;;2.12;nan;101646.47;4933449;29;20233;-66
2023/04/04 02:39:31;;;;;;;3.95;2.50;;;2.40;99.90;;;2.07;nan;101652.59;4932491;29;20213;-66
2023/04/04 02:41:58;;;;;;;2.05;2.00;;;2.40;99.90;;;2.04;nan;101653.53;4933156;29;20205;-66
2023/04/04 02:44:25;;;;;;;2.15;2.05;;;2.30;99.90;;;2.04;nan;101653.53;4931163;29;20216;-66
2023/04/04 02:46:51;;;;;;;2.47;2.25;;;2.30;99.90;;;2.05;nan;101652.63;4931699;29;20234;-66
2023/04/04 02:49:19;;;;;;;7.95;2.28;;;2.40;99.90;;;2.05;nan;101654.34;4931635;29;20233;-66
2023/04/04 02:51:46;;;;;;;2.28;2.17;;;2.40;99.90;;;2.04;nan;101655.25;4923407;29;20403;-66
2023/04/04 02:54:13;;;;;;;2.03;1.92;;;2.30;99.90;;;2.03;nan;101650.97;4933750;29;20197;-66
2023/04/04 02:56:40;;;;;;;2.33;2.22;;;2.30;99.90;;;2.02;nan;101651.84;4926595;29;20285;-65
2023/04/04 02:59:07;;;;;;;2.35;2.15;;;2.30;99.90;;;2.01;nan;101647.56;4930677;29;20201;-66
2023/04/04 03:01:34;;;;;;;2.35;2.22;;;2.30;99.90;;;1.93;nan;101649.47;4932258;29;20205;-65
2023/04/04 03:04:03;;;;;;;4.07;2.30;;;2.20;99.90;;;1.93;nan;101646.88;4934730;29;20252;-66
2023/04/04 03:06:33;;;;;;;2.42;2.33;;;2.20;99.90;;;1.89;nan;101652.97;4928977;29;20223;-65
2023/04/04 03:09:00;;;;;;;1.90;1.90;;;2.20;99.90;;;1.86;nan;101642.72;4935885;29;20225;-65
2023/04/04 03:11:27;;;;;;;2.13;2.13;;;2.20;99.90;;;1.88;nan;101646.97;4936047;29;20205;-66
2023/04/04 03:13:54;;;;;;;2.28;2.13;;;2.20;99.90;;;1.86;nan;101653.88;4935858;29;20742;-65
2023/04/04 03:16:22;;;;;;;2.90;2.70;;;2.20;99.90;;;1.84;nan;101645.34;4937244;29;20216;-65
2023/04/04 03:18:49;;;;;;;3.00;2.65;;;2.20;99.90;;;1.80;nan;101650.56;4936269;29;20220;-66
2023/04/04 03:21:16;;;;;;;2.20;2.10;;;2.10;99.90;;;1.83;nan;101656.50;4942434;28;20283;-65
2023/04/04 03:23:43;;;;;;;2.40;2.30;;;2.10;99.90;;;1.81;nan;101654.88;4937273;29;20216;-66
2023/04/04 03:26:10;;;;;;;2.10;2.00;;;2.10;99.90;;;1.78;nan;101649.75;4936316;29;20205;-66
2023/04/04 03:28:37;;;;;;;2.45;2.35;;;2.10;99.90;;;1.79;nan;101651.47;4936761;29;20232;-66
2023/04/04 03:31:04;;;;;;;2.47;2.38;;;2.10;99.90;;;1.75;nan;101649.81;4936215;29;20721;-66
2023/04/04 03:33:36;;;;;;;3.30;2.50;;;2.00;99.90;;;1.75;nan;101654.97;4937195;29;20209;-66
2023/04/04 03:36:13;;;;;;;2.22;2.22;;;2.10;99.90;;;1.70;nan;101651.66;4949894;28;20205;-66
2023/04/04 03:38:40;;;;;;;2.60;2.50;;;2.00;99.90;;;1.70;nan;101646.50;4936261;29;20706;-66
2023/04/04 03:41:07;;;;;;;2.60;2.50;;;2.00;99.90;;;1.67;nan;101649.97;4935170;29;20609;-66
2023/04/04 03:43:34;;;;;;;2.40;2.30;;;2.00;99.90;;;1.69;nan;101644.78;4937150;29;20581;-65
2023/04/04 03:46:03;;;;;;;2.38;2.28;;;2.00;99.90;;;1.66;nan;101640.56;4935424;29;20217;-65
2023/04/04 03:48:30;;;;;;;4.68;2.60;;;2.00;99.90;;;1.65;nan;101649.16;4952735;28;20233;-66
2023/04/04 03:50:57;;;;;;;2.20;2.10;;;2.00;99.90;;;1.64;nan;101649.19;4935985;29;20225;-66
2023/04/04 03:53:27;;;;;;;1.35;1.35;;;2.00;99.90;;;1.61;nan;101644.94;4934793;29;20216;-66
2023/04/04 03:55:55;;;;;;;2.33;2.22;;;2.00;99.90;;;1.72;nan;101642.16;4935545;29;20194;-66
2023/04/04 03:58:26;;;;;;;2.33;2.22;;;2.00;99.90;;;1.76;nan;101646.38;4936120;29;20229;-66
2023/04/04 04:00:53;;;;;;;2.58;2.38;;;1.90;99.90;;;1.75;nan;101642.09;4934099;29;20224;-65
2023/04/04 04:03:21;;;;;;;2.42;2.25;;;1.90;99.90;;;1.74;nan;101643.84;4936126;29;20600;-66
2023/04/04 04:05:48;;;;;;;2.47;2.30;;;1.90;99.90;;;1.75;nan;101649.81;4935429;29;20552;-65
2023/04/04 04:08:15;;;;;;;2.50;2.33;;;1.90;99.90;;;1.74;nan;101650.69;4936140;29;20236;-64
2023/04/04 04:10:42;;;;;;;2.05;2.00;;;1.90;99.90;;;1.74;nan;101645.56;4934976;29;20225;-68
2023/04/04 04:13:09;;;;;;;3.00;2.90;;;1.90;99.90;;;1.74;nan;101643.84;4936503;29;20216;-66
2023/04/04 04:15:36;;;;;;;2.67;2.38;;;1.90;99.90;;;1.70;nan;101641.34;4934064;29;20245;-66
2023/04/04 04:18:04;;;;;;;2.90;2.70;;;1.90;99.90;;;1.68;nan;101640.53;4934944;29;20225;-66
2023/04/04 04:20:31;;;;;;;2.15;2.05;;;1.80;99.90;;;1.69;nan;101637.06;4935171;29;20750;-67
2023/04/04 04:22:58;;;;;;;2.20;2.10;;;1.80;99.90;;;1.69;nan;101635.34;4935532;29;20205;-66
2023/04/04 04:25:25;;;;;;;2.28;2.20;;;1.80;99.90;;;1.71;nan;101640.47;4935982;29;20209;-66
2023/04/04 04:27:56;;;;;;;2.50;2.40;;;1.80;99.90;;;1.69;nan;101642.22;4934367;29;20229;-66
2023/04/04 04:30:23;;;;;;;2.17;2.08;;;1.90;99.90;;;1.72;nan;101642.16;4950939;29;20229;-67
2023/04/04 04:32:50;;;;;;;2.42;2.28;;;1.90;99.90;;;1.69;nan;101639.66;4934596;29;20742;-66
2023/04/04 04:35:17;;;;;;;2.55;2.30;;;1.90;99.90;;;1.66;nan;101645.72;4936004;29;20205;-66
2023/04/04 04:37:44;;;;;;;2.72;2.60;;;1.80;99.90;;;1.64;nan;101642.31;4932385;29;20241;-67
2023/04/04 04:40:13;;;;;;;2.53;2.40;;;1.80;99.90;;;1.66;nan;101640.56;4934755;29;20227;-66
2023/04/04 04:42:46;;;;;;;2.45;2.35;;;1.80;99.90;;;1.64;nan;101642.31;4949727;28;20213;-66
2023/04/04 04:45:13;;;;;;;3.10;2.70;;;1.80;99.90;;;1.48;nan;101646.91;4935815;29;20217;-67
2023/04/04 04:47:40;;;;;;;3.53;2.80;;;1.80;99.90;;;1.41;nan;101642.75;4932847;29;20237;-66
2023/04/04 04:50:08;;;;;;;2.90;2.70;;;1.80;99.90;;;1.40;nan;101645.34;4934120;29;20240;-66
2023/04/04 04:52:37;;;;;;;4.43;2.60;;;1.80;99.90;;;1.39;nan;101648.78;4934087;29;20202;-67
2023/04/04 04:55:05;;;;;;;2.50;2.40;;;1.70;99.90;;;1.38;nan;101645.41;4933911;29;20588;-64
2023/04/04 04:57:33;;;;;;;4.03;2.10;;;1.70;99.90;;;1.38;nan;101649.69;4933565;29;20234;-66
2023/04/04 05:00:00;;;;;;;2.08;2.00;;;1.70;99.90;;;1.36;nan;101646.28;4935001;29;20210;-68
2023/04/04 05:02:27;;;;;;;2.13;2.13;;;1.70;99.90;;;1.36;nan;101641.16;4933857;29;20584;-66
2023/04/04 05:04:54;;;;;;;2.60;2.40;;;1.70;99.90;;;1.39;nan;101651.34;4934718;29;20220;-66
2023/04/04 05:07:22;;;;;;;2.60;2.50;;;1.70;99.90;;;1.38;nan;101647.97;4916397;29;20735;-67
2023/04/04 05:09:52;;;;;;;2.55;2.45;;;1.70;99.90;;;1.37;nan;101653.13;4915722;29;20269;-66
2023/04/04 05:12:19;;;;;;;2.20;2.10;;;1.70;99.90;;;1.39;nan;101651.34;4933312;29;20236;-66
2023/04/04 05:14:46;;;;;;;4.53;2.60;;;1.70;99.90;;;1.43;nan;101655.56;4933208;29;20672;-66
2023/04/04 05:17:13;;;;;;;2.25;2.25;;;1.80;99.90;;;1.52;nan;101647.69;4931583;29;20225;-65
2023/04/04 05:19:40;;;;;;;2.50;2.40;;;1.90;99.90;;;1.70;nan;101651.66;4933949;29;20588;-68
2023/04/04 05:22:07;;;;;;;2.22;2.13;;;2.00;99.90;;;1.94;nan;101646.84;4934078;29;20212;-66
2023/04/04 05:24:33;;;;;;;2.40;2.30;;;2.20;99.90;;;2.15;nan;101645.56;4933918;29;20212;-66
2023/04/04 05:27:00;;;;;;;2.53;2.38;;;2.40;99.90;;;2.39;nan;101647.59;4933186;29;20232;-66
2023/04/04 05:29:28;;;;;;;2.70;2.50;;;2.60;99.90;;;2.66;nan;101654.69;4934215;29;20208;-66
2023/04/04 05:31:55;;;;;;;2.70;2.50;;;2.90;99.90;;;2.95;nan;101656.59;4926151;29;20229;-66
2023/04/04 05:34:22;;;;;;;2.30;2.20;;;3.20;99.90;;;3.25;nan;101644.66;4933973;29;20201;-66
2023/04/04 05:36:49;;;;;;;3.88;2.42;;;3.50;99.90;;;3.62;nan;101645.38;4931693;29;20252;-69
2023/04/04 05:39:16;;;;;;;2.42;2.33;;;3.80;99.90;;;4.00;nan;101662.38;4931297;29;20205;-69
2023/04/04 05:41:43;;;;;;;3.00;2.40;;;4.20;99.90;;;4.27;nan;101662.41;4933698;29;20584;-66
2023/04/04 05:44:10;;;;;;;2.40;2.40;;;4.50;99.90;;;4.52;nan;101652.16;4933233;29;20213;-66
2023/04/04 05:46:37;;;;;;;3.08;2.78;;;4.80;99.90;;;4.65;nan;101669.84;4932137;29;20209;-70
2023/04/04 05:49:04;;;;;;;2.50;2.30;;;4.90;99.90;;;4.83;nan;101663.25;4931127;29;20209;-66
2023/04/04 05:51:31;;;;;;;2.00;1.85;;;5.10;99.90;;;5.11;nan;101666.63;4933505;29;20236;-67
2023/04/04 05:53:58;;;;;;;3.00;2.70;;;5.30;99.90;;;5.33;nan;101664.16;4933975;29;20333;-66
2023/04/04 05:56:25;;;;;;;2.58;2.38;;;5.60;99.90;;;5.57;nan;101667.66;4933415;29;20291;-66
2023/04/04 05:58:52;;;;;;;2.60;2.50;;;5.80;99.90;;;5.79;nan;101666.81;4944243;29;20221;-66
2023/04/04 06:01:19;;;;;;;3.58;2.05;;;6.10;99.50;;;6.05;nan;101671.94;4949650;29;20213;-64
2023/04/04 06:03:46;;;;;;;4.53;2.28;;;6.30;98.80;;;6.40;nan;101670.63;4933726;29;20249;-66
2023/04/04 06:06:13;;;;;;;2.55;2.45;;;6.60;98.00;;;6.78;nan;101672.59;4933151;29;20252;-67
2023/04/04 06:08:40;;;;;;;4.50;2.37;;;7.00;97.30;;;7.28;nan;101665.34;4933240;29;20293;-67
2023/04/04 06:11:21;;;;;;;2.30;2.20;;;7.50;96.30;;;8.02;nan;101667.25;4932765;29;20707;-67
2023/04/04 06:13:49;;;;;;;2.67;2.30;;;8.10;94.90;;;8.67;nan;101674.63;4933666;29;20672;-66
2023/04/04 06:16:16;;;;;;;2.60;2.40;;;8.80;93.10;;;9.28;nan;101668.13;4930633;29;20703;-66
2023/04/04 06:18:43;;;;;;;2.70;2.50;;;9.50;91.50;;;9.67;nan;101669.66;4933374;29;20649;-67
2023/04/04 06:21:10;;;;;;;2.63;2.40;;;10.00;89.80;;;10.40;nan;101669.19;4933020;29;20816;-66
2023/04/04 06:23:37;;;;;;;2.40;2.30;;;10.70;86.70;;;11.11;nan;101675.59;4933581;29;20699;-66
2023/04/04 06:26:05;;;;;;;2.90;2.70;;;11.40;82.50;;;11.51;nan;101677.56;4932716;29;20645;-67
2023/04/04 06:28:32;;;;;;;3.37;2.87;;;11.90;78.50;;;12.10;nan;101682.66;4931563;29;20707;-66
2023/04/04 06:31:00;;;;;;;2.87;2.60;;;12.40;76.00;;;12.46;nan;101680.38;4932603;29;20712;-66
2023/04/04 06:33:27;;;;;;;4.47;2.70;;;12.90;72.90;;;12.75;nan;101682.91;4933976;29;20628;-67
2023/04/04 06:35:53;;;;;;;2.73;2.53;;;13.30;71.00;;;13.14;nan;101677.72;4932228;29;20704;-67
2023/04/04 06:38:20;;;;;;;2.67;2.50;;;13.70;69.50;;;13.76;nan;101679.56;4932028;29;21270;-66
2023/04/04 06:40:47;;;;;;;2.13;2.00;;;14.30;67.60;;;14.19;nan;101680.06;4930785;29;20639;-68
2023/04/04 06:43:14;;;;;;;2.93;2.73;;;14.80;65.00;;;14.55;nan;101677.47;4931499;29;21062;-68
2023/04/04 06:45:41;;;;;;;2.30;2.30;;;15.10;63.80;;;14.78;nan;101688.94;4932489;29;20960;-67
2023/04/04 06:48:08;;;;;;;3.73;2.50;;;15.40;62.30;;;15.13;nan;101681.94;4925977;29;20661;-67
2023/04/04 06:50:36;;;;;;;2.50;2.27;;;15.70;61.30;;;15.89;nan;101686.66;4928589;29;20685;-66
2023/04/04 06:53:04;;;;;;;2.73;2.60;;;16.40;59.50;;;16.33;nan;101694.56;4932514;29;21019;-67
2023/04/04 06:55:33;;;;;;;2.60;2.50;;;16.90;57.90;;;16.61;nan;101694.06;4931561;29;20970;-68
2023/04/04 06:58:00;;;;;;;2.07;1.97;;;17.20;56.10;;;16.61;nan;101693.25;4931627;29;20675;-68
2023/04/04 07:00:27;;;;;;;2.63;2.43;;;17.20;55.60;;;16.73;nan;101692.25;4932298;29;20644;-68
2023/04/04 07:02:58;;;;;;;2.83;2.50;;;17.30;54.90;;;16.60;nan;101689.75;4932721;29;20681;-67
2023/04/04 07:05:26;;;;;;;2.30;2.20;;;17.10;55.20;;;16.76;nan;101698.09;4933098;29;20639;-67
2023/04/04 07:07:55;;;;;;;1.27;1.17;;;17.20;54.60;;;15.37;nan;101687.16;4932265;29;20657;-67
2023/04/04 07:10:24;;;;;;;1.87;1.77;;;16.40;52.20;;;15.25;nan;101686.28;4932179;29;20634;-67
2023/04/04 07:12:51;;;;;;;1.73;1.73;;;15.80;53.30;;;15.40;nan;101690.38;4933980;29;20621;-67
2023/04/04 07:15:18;;;;;;;0.67;0.67;;;16.00;52.90;;;15.72;nan;101690.59;4932560;29;20633;-66
2023/04/04 07:17:45;;;;;;;2.03;1.80;;;16.20;52.70;;;15.78;nan;101690.13;4932229;29;21222;-67
2023/04/04 07:20:12;;;;;;;2.00;1.90;;;16.20;52.60;;;16.31;nan;101688.59;4931861;29;20636;-64
2023/04/04 07:22:40;;;;;;;1.33;1.20;;;16.70;51.80;;;16.66;nan;101686.63;4933198;29;21043;-67
2023/04/04 07:25:08;;;;;;;1.87;1.77;;;17.20;50.70;;;16.82;nan;101687.03;4931585;29;20671;-67
2023/04/04 07:27:35;;;;;;;1.73;1.63;;;17.40;50.60;;;17.18;nan;101691.13;4930518;29;21055;-68
2023/04/04 07:30:04;;;;;;;1.53;1.53;;;17.60;50.30;;;16.83;nan;101685.25;4933936;29;20620;-68
2023/04/04 07:32:31;;;;;;;2.07;1.90;;;17.30;49.30;;;17.00;nan;101677.63;4930693;29;21019;-66
2023/04/04 07:34:58;;;;;;;1.80;1.70;;;17.40;49.90;;;17.19;nan;101681.38;4934033;29;20621;-68
2023/04/04 07:37:27;;;;;;;2.43;2.13;;;17.60;49.70;;;17.16;nan;101681.66;4947203;23;21832;-62
2023/04/04 07:39:54;;;;;;;1.87;1.73;;;17.60;48.90;;;16.35;nan;101684.75;4956560;28;21310;-65
2023/04/04 07:42:24;;;;;;;2.40;1.20;;;17.00;48.40;;;15.60;nan;101674.91;4965790;28;20635;-63
2023/04/04 07:44:51;;;;;;;1.37;1.27;;;16.30;49.10;;;15.48;nan;101669.63;4971328;28;20634;-67
2023/04/04 07:47:19;;;;;;;2.37;2.17;;;16.00;49.70;;;15.47;nan;101669.75;4968358;28;20643;-66
2023/04/04 07:49:46;;;;;;;1.87;1.77;;;16.00;49.90;;;15.78;nan;101678.78;4954875;28;20710;-66
2023/04/04 07:52:13;;;;;;;1.50;1.40;;;16.30;49.50;;;16.08;nan;101685.13;4972368;28;21087;-66
2023/04/04 07:54:40;;;;;;;2.40;2.20;;;16.60;48.50;;;16.32;nan;101674.44;4974095;28;20627;-65
2023/04/04 07:57:08;;;;;;;1.90;1.80;;;16.90;48.70;;;16.62;nan;101676.44;4970500;28;20972;-64
2023/04/04 07:59:36;;;;;;;1.93;1.83;;;17.20;47.80;;;16.90;nan;101681.16;4973368;28;20663;-66
2023/04/04 08:02:03;;;;;;;1.47;1.30;;;17.60;47.80;;;16.46;nan;101682.06;4963987;28;20702;-65
2023/04/04 08:04:30;;;;;;;2.03;1.93;;;17.50;46.30;;;16.29;nan;101675.50;4958363;28;20636;-64
2023/04/04 08:06:57;;;;;;;2.00;1.90;;;17.20;46.50;;;16.80;nan;101667.88;4959026;28;20640;-66
2023/04/04 08:09:24;;;;;;;3.80;1.77;;;17.70;46.60;;;17.58;nan;101672.81;4954690;28;20648;-65
2023/04/04 08:11:51;;;;;;;1.90;1.77;;;18.40;46.60;;;18.14;nan;101668.78;4954973;28;21325;-67
2023/04/04 08:14:18;;;;;;;2.00;1.90;;;19.20;44.40;;;18.42;nan;101670.66;4954850;28;20623;-65
2023/04/04 08:16:46;;;;;;;1.83;1.73;;;19.60;43.60;;;18.16;nan;101677.41;4965737;28;20636;-65
2023/04/04 08:19:13;;;;;;;1.90;1.80;;;19.40;43.20;;;17.26;nan;101677.28;4967820;28;20651;-65
2023/04/04 08:21:40;;;;;;;2.50;2.23;;;18.50;44.30;;;16.83;nan;101678.19;4965042;28;20662;-65
2023/04/04 08:24:07;;;;;;;3.13;2.50;;;18.10;44.10;;;17.08;nan;101677.00;4966807;28;21272;-65
2023/04/04 08:26:34;;;;;;;0.93;0.93;;;18.20;44.20;;;17.02;nan;101673.06;4962574;28;20628;-67
2023/04/04 08:29:01;;;;;;;2.60;1.80;;;18.40;43.60;;;18.15;nan;101674.88;4960627;28;20710;-65
2023/04/04 08:31:28;;;;;;;1.93;1.83;;;19.00;43.80;;;18.20;nan;101677.97;4962574;28;21016;-65
2023/04/04 08:33:55;;;;;;;2.40;2.10;;;19.30;43.00;;;18.70;nan;101674.34;4962984;28;20643;-65
2023/04/04 08:36:23;;;;;;;3.30;2.40;;;19.60;43.00;;;20.39;nan;101676.13;4973237;28;20709;-65
2023/04/04 08:38:50;;;;;;;2.20;1.63;;;21.20;42.50;;;21.83;nan;101673.09;4970777;28;20659;-66
2023/04/04 08:41:17;;;;;;;3.17;1.60;;;22.90;40.50;;;22.44;nan;101670.19;4959193;28;20643;-65
2023/04/04 08:43:47;;;;;;;3.67;2.33;;;23.90;38.50;;;21.88;nan;101679.59;4987358;28;20629;-65
2023/04/04 08:46:15;;;;;;;2.40;1.50;;;23.40;38.20;;;22.44;nan;101660.41;4984336;28;20635;-66
2023/04/04 08:48:44;;;;;;;2.20;2.10;;;23.30;38.50;;;22.14;nan;101667.13;4972290;28;20655;-65
2023/04/04 08:51:13;;;;;;;1.80;1.70;;;23.10;38.70;;;22.86;nan;101663.00;4971040;28;20671;-65
2023/04/04 08:53:41;;;;;;;2.10;1.90;;;23.60;38.10;;;24.19;nan;101662.28;4967938;28;20714;-65
2023/04/04 08:56:09;;;;;;;2.20;2.00;;;24.90;37.70;;;25.60;nan;101657.28;4962831;28;20706;-65
2023/04/04 08:58:37;;;;;;;2.10;2.00;;;26.40;36.20;;;25.89;nan;101661.81;4961363;28;20671;-65
2023/04/04 09:01:06;;;;;;;2.30;2.20;;;27.00;34.80;;;26.52;nan;101659.34;4961955;28;20894;-65
2023/04/04 09:03:33;;;;;;;2.03;1.93;;;27.40;34.40;;;27.53;nan;101657.22;4954943;28;20627;-66
2023/04/04 09:06:02;;;;;;;1.63;1.17;;;28.40;34.40;;;26.08;nan;101664.78;4958261;28;20714;-65
2023/04/04 09:08:29;;;;;;;1.70;1.60;;;28.80;32.40;;;23.92;nan;101660.03;4971991;28;20655;-66
2023/04/04 09:10:57;;;;;;;1.83;1.60;;;25.80;34.30;;;23.73;nan;101666.63;4958900;28;20674;-65
2023/04/04 09:13:23;;;;;;;3.27;1.70;;;25.10;33.60;;;23.50;nan;101648.84;4954280;28;20624;-65
2023/04/04 09:15:56;;;;;;;1.97;1.80;;;24.70;33.60;;;21.43;nan;101655.06;4958844;28;20627;-64
2023/04/04 09:18:23;;;;;;;2.50;2.20;;;23.00;34.70;;;21.89;nan;101644.06;4963566;28;20651;-65
2023/04/04 09:20:50;;;;;;;2.47;0.87;;;22.60;35.70;;;23.14;nan;101661.69;4971740;28;20642;-64
2023/04/04 09:23:19;;;;;;;2.00;1.90;;;23.80;35.20;;;24.57;nan;101661.44;4973181;28;21513;-66
2023/04/04 09:25:54;;;;;;;1.53;1.53;;;25.10;34.50;;;24.23;nan;101652.97;4971093;28;21171;-66
2023/04/04 09:28:24;;;;;;;1.53;1.43;;;25.50;33.70;;;24.17;nan;101661.63;4961852;28;20655;-65
2023/04/04 09:30:52;;;;;;;2.00;1.90;;;25.50;33.40;;;25.24;nan;101659.78;4973253;28;20631;-65
2023/04/04 09:33:23;;;;;;;2.20;2.10;;;26.10;33.40;;;25.27;nan;101648.75;4972113;28;20624;-64
2023/04/04 09:36:09;;;;;;;2.30;2.20;;;26.00;34.20;;;26.21;nan;101652.59;4979340;28;20632;-64
2023/04/04 09:38:42;;;;;;;2.73;2.53;;;27.20;33.20;;;27.41;nan;101653.41;4963908;28;20656;-65
2023/04/04 09:41:09;;;;;;;1.70;1.70;;;28.30;32.60;;;27.22;nan;101651.38;4962104;28;20636;-65
2023/04/04 09:43:38;;;;;;;2.50;2.13;;;28.30;32.80;;;27.80;nan;101654.66;4953759;28;20628;-67
2023/04/04 09:46:06;;;;;;;1.30;1.30;;;28.90;32.00;;;26.54;nan;101656.47;4967342;28;21020;-65
2023/04/04 09:48:35;;;;;;;2.70;1.90;;;28.30;31.70;;;27.51;nan;101650.38;4971935;28;20643;-69
2023/04/04 09:51:08;;;;;;;2.60;1.87;;;28.40;32.20;;;28.34;nan;101650.22;4986497;28;20686;-66
2023/04/04 09:53:36;;;;;;;2.13;1.90;;;29.40;31.60;;;29.39;nan;101653.06;4968039;28;20625;-66
2023/04/04 09:56:05;;;;;;;2.97;2.20;;;30.40;32.20;;;30.38;nan;101649.06;4979826;28;20638;-68
2023/04/04 09:58:34;;;;;;;2.00;1.90;;;31.30;31.10;;;28.56;nan;101657.06;4954617;28;20719;-65
2023/04/04 10:01:08;;;;;;;2.73;1.43;;;30.70;30.30;;;24.97;nan;101648.84;4958376;28;20647;-67
2023/04/04 10:03:38;;;;;;;4.40;2.40;;;27.60;31.00;;;24.55;nan;101643.94;4968479;28;20640;-65
2023/04/04 10:06:06;;;;;;;1.90;1.80;;;25.70;31.80;;;25.08;nan;101635.91;4966961;28;20721;-65
2023/04/04 10:08:38;;;;;;;1.97;1.87;;;25.80;32.00;;;25.44;nan;101630.75;4969563;28;20663;-65
2023/04/04 10:11:06;;;;;;;3.90;2.10;;;26.40;31.70;;;26.38;nan;101633.44;4963845;28;21205;-65
2023/04/04 10:13:43;;;;;;;2.03;1.93;;;27.00;32.10;;;27.46;nan;101628.69;4963302;28;20639;-65
2023/04/04 10:16:10;;;;;;;1.90;1.80;;;28.20;31.80;;;28.09;nan;101655.25;4971224;28;20624;-63
2023/04/04 10:18:38;;;;;;;2.27;2.07;;;29.20;31.20;;;27.78;nan;101640.63;4970132;28;21251;-64
2023/04/04 10:21:07;;;;;;;2.30;2.10;;;28.80;31.10;;;27.69;nan;101648.00;4971229;28;21236;-65
2023/04/04 10:23:40;;;;;;;2.07;1.97;;;28.80;31.00;;;27.11;nan;101637.69;4959185;28;21021;-65
2023/04/04 10:26:07;;;;;;;2.03;1.93;;;28.20;30.80;;;26.50;nan;101628.41;4963542;28;20686;-65
2023/04/04 10:28:34;;;;;;;1.90;1.80;;;27.40;31.10;;;26.21;nan;101629.34;4968484;28;20673;-64
2023/04/04 10:31:23;;;;;;;2.20;1.70;;;26.90;31.80;;;24.99;nan;101625.44;4972537;28;21018;-65
2023/04/04 10:34:24;;;;;;;2.37;2.00;;;25.50;32.40;;;23.26;nan;101627.53;4972628;28;20624;-64
2023/04/04 10:37:09;;;;;;;2.40;1.60;;;24.00;33.00;;;21.28;nan;101622.94;4972847;28;20666;-64
2023/04/04 10:40:03;;;;;;;1.70;1.60;;;22.00;34.10;;;19.75;nan;101623.97;4962419;28;20717;-64